sensor_id;sensor_type;location;lat;lon;timestamp;temperature;humidity
14192;DHT22;7177;48.572;7.838;2022-09-02T00:01:30;17.70;99.90
14192;DHT22;7177;48.572;7.838;2022-09-02T00:04:01;17.60;99.90
14192;DHT22;7177;48.572;7.838;2022-09-02T00:06:27;17.60;99.90
14192;DHT22;7177;48.572;7.838;2022-09-02T00:08:53;17.50;99.90
14192;DHT22;7177;48.572;7.838;2022-09-02T00:11:21;17.30;99.90
14192;DHT22;7177;48.572;7.838;2022-09-02T00:13:49;17.10;99.90
14192;DHT22;7177;48.572;7.838;2022-09-02T00:16:15;17.00;99.90
14192;DHT22;7177;48.572;7.838;2022-09-02T00:18:42;17.00;99.90
14192;DHT22;7177;48.572;7.838;2022-09-02T00:21:09;17.00;99.90
14192;DHT22;7177;48.572;7.838;2022-09-02T00:23:37;16.90;99.90
14192;DHT22;7177;48.572;7.838;2022-09-02T00:26:03;16.90;99.90
14192;DHT22;7177;48.572;7.838;2022-09-02T00:28:28;16.90;99.90
14192;DHT22;7177;48.572;7.838;2022-09-02T00:30:54;16.90;99.90
14192;DHT22;7177;48.572;7.838;2022-09-02T00:33:19;16.90;99.90
14192;DHT22;7177;48.572;7.838;2022-09-02T00:35:45;16.90;99.90
14192;DHT22;7177;48.572;7.838;2022-09-02T00:38:11;16.90;99.90
14192;DHT22;7177;48.572;7.838;2022-09-02T00:40:38;16.80;99.90
14192;DHT22;7177;48.572;7.838;2022-09-02T00:43:09;16.80;99.90
14192;DHT22;7177;48.572;7.838;2022-09-02T00:45:35;16.80;99.90
14192;DHT22;7177;48.572;7.838;2022-09-02T00:48:03;16.80;99.90
14192;DHT22;7177;48.572;7.838;2022-09-02T00:50:33;16.70;99.90
14192;DHT22;7177;48.572;7.838;2022-09-02T00:53:03;16.50;99.90
14192;DHT22;7177;48.572;7.838;2022-09-02T00:55:34;16.50;99.90
14192;DHT22;7177;48.572;7.838;2022-09-02T00:58:05;16.40;99.90
14192;DHT22;7177;48.572;7.838;2022-09-02T01:00:37;16.40;99.90
14192;DHT22;7177;48.572;7.838;2022-09-02T01:03:07;16.30;99.90
14192;DHT22;7177;48.572;7.838;2022-09-02T01:05:36;16.30;99.90
14192;DHT22;7177;48.572;7.838;2022-09-02T01:08:03;16.20;99.90
14192;DHT22;7177;48.572;7.838;2022-09-02T01:10:33;16.10;99.90
14192;DHT22;7177;48.572;7.838;2022-09-02T01:13:02;16.00;99.90
14192;DHT22;7177;48.572;7.838;2022-09-02T01:15:34;15.90;99.90
14192;DHT22;7177;48.572;7.838;2022-09-02T01:18:03;15.90;99.90
14192;DHT22;7177;48.572;7.838;2022-09-02T01:20:29;15.80;99.90
14192;DHT22;7177;48.572;7.838;2022-09-02T01:22:55;15.70;99.90
14192;DHT22;7177;48.572;7.838;2022-09-02T01:25:26;15.70;99.90
14192;DHT22;7177;48.572;7.838;2022-09-02T01:27:53;15.70;99.90
14192;DHT22;7177;48.572;7.838;2022-09-02T01:30:24;15.80;99.90
14192;DHT22;7177;48.572;7.838;2022-09-02T01:32:50;15.70;99.90
14192;DHT22;7177;48.572;7.838;2022-09-02T01:35:16;15.70;99.90
14192;DHT22;7177;48.572;7.838;2022-09-02T01:37:43;15.70;99.90
14192;DHT22;7177;48.572;7.838;2022-09-02T01:40:12;15.70;99.90
14192;DHT22;7177;48.572;7.838;2022-09-02T01:42:39;15.80;99.90
14192;DHT22;7177;48.572;7.838;2022-09-02T01:45:05;15.90;99.90
14192;DHT22;7177;48.572;7.838;2022-09-02T01:47:31;15.90;99.90
14192;DHT22;7177;48.572;7.838;2022-09-02T01:49:57;15.80;99.90
14192;DHT22;7177;48.572;7.838;2022-09-02T01:52:25;15.60;99.90
14192;DHT22;7177;48.572;7.838;2022-09-02T01:54:51;15.50;99.90
14192;DHT22;7177;48.572;7.838;2022-09-02T01:57:17;15.40;99.90
14192;DHT22;7177;48.572;7.838;2022-09-02T01:59:43;15.40;99.90
14192;DHT22;7177;48.572;7.838;2022-09-02T02:02:11;15.40;99.90
14192;DHT22;7177;48.572;7.838;2022-09-02T02:04:37;15.40;99.90
14192;DHT22;7177;48.572;7.838;2022-09-02T02:07:03;15.40;99.90
14192;DHT22;7177;48.572;7.838;2022-09-02T02:09:29;15.30;99.90
14192;DHT22;7177;48.572;7.838;2022-09-02T02:11:54;15.20;99.90
14192;DHT22;7177;48.572;7.838;2022-09-02T02:14:20;15.30;99.90
14192;DHT22;7177;48.572;7.838;2022-09-02T02:16:46;15.20;99.90
14192;DHT22;7177;48.572;7.838;2022-09-02T02:19:12;15.20;99.90
14192;DHT22;7177;48.572;7.838;2022-09-02T02:21:38;15.00;99.90
14192;DHT22;7177;48.572;7.838;2022-09-02T02:24:05;15.00;99.90
14192;DHT22;7177;48.572;7.838;2022-09-02T02:26:32;14.90;99.90
14192;DHT22;7177;48.572;7.838;2022-09-02T02:28:57;14.80;99.90
14192;DHT22;7177;48.572;7.838;2022-09-02T02:31:23;14.80;99.90
14192;DHT22;7177;48.572;7.838;2022-09-02T02:33:49;14.70;99.90
14192;DHT22;7177;48.572;7.838;2022-09-02T02:36:16;14.70;99.90
14192;DHT22;7177;48.572;7.838;2022-09-02T02:38:41;14.80;99.90
14192;DHT22;7177;48.572;7.838;2022-09-02T02:41:09;14.80;99.90
14192;DHT22;7177;48.572;7.838;2022-09-02T02:43:34;14.80;99.90
14192;DHT22;7177;48.572;7.838;2022-09-02T02:46:00;14.80;99.90
14192;DHT22;7177;48.572;7.838;2022-09-02T02:48:26;14.70;99.90
14192;DHT22;7177;48.572;7.838;2022-09-02T02:50:52;14.60;99.90
14192;DHT22;7177;48.572;7.838;2022-09-02T02:53:18;14.50;99.90
14192;DHT22;7177;48.572;7.838;2022-09-02T02:55:43;14.40;99.90
14192;DHT22;7177;48.572;7.838;2022-09-02T02:58:09;14.40;99.90
14192;DHT22;7177;48.572;7.838;2022-09-02T03:00:35;14.40;99.90
14192;DHT22;7177;48.572;7.838;2022-09-02T03:03:07;14.40;99.90
14192;DHT22;7177;48.572;7.838;2022-09-02T03:05:33;14.30;99.90
14192;DHT22;7177;48.572;7.838;2022-09-02T03:08:02;14.30;99.90
14192;DHT22;7177;48.572;7.838;2022-09-02T03:10:28;14.30;99.90
14192;DHT22;7177;48.572;7.838;2022-09-02T03:12:57;14.30;99.90
14192;DHT22;7177;48.572;7.838;2022-09-02T03:15:24;14.30;99.90
14192;DHT22;7177;48.572;7.838;2022-09-02T03:17:51;14.20;99.90
14192;DHT22;7177;48.572;7.838;2022-09-02T03:20:17;14.20;99.90
14192;DHT22;7177;48.572;7.838;2022-09-02T03:22:44;14.20;99.90
14192;DHT22;7177;48.572;7.838;2022-09-02T03:25:13;14.10;99.90
14192;DHT22;7177;48.572;7.838;2022-09-02T03:27:39;14.10;99.90
14192;DHT22;7177;48.572;7.838;2022-09-02T03:30:08;14.10;99.90
14192;DHT22;7177;48.572;7.838;2022-09-02T03:32:35;14.10;99.90
14192;DHT22;7177;48.572;7.838;2022-09-02T03:35:03;14.00;99.90
14192;DHT22;7177;48.572;7.838;2022-09-02T03:37:28;14.10;99.90
14192;DHT22;7177;48.572;7.838;2022-09-02T03:39:54;14.10;99.90
14192;DHT22;7177;48.572;7.838;2022-09-02T03:42:19;14.10;99.90
14192;DHT22;7177;48.572;7.838;2022-09-02T03:44:45;13.90;99.90
14192;DHT22;7177;48.572;7.838;2022-09-02T03:47:11;13.90;99.90
14192;DHT22;7177;48.572;7.838;2022-09-02T03:49:38;13.90;99.90
14192;DHT22;7177;48.572;7.838;2022-09-02T03:52:04;13.90;99.90
14192;DHT22;7177;48.572;7.838;2022-09-02T03:54:29;13.90;99.90
14192;DHT22;7177;48.572;7.838;2022-09-02T03:56:55;13.90;99.90
14192;DHT22;7177;48.572;7.838;2022-09-02T03:59:21;13.90;99.90
14192;DHT22;7177;48.572;7.838;2022-09-02T04:01:46;13.80;99.90
14192;DHT22;7177;48.572;7.838;2022-09-02T04:04:12;13.80;99.90
14192;DHT22;7177;48.572;7.838;2022-09-02T04:06:38;13.80;99.90
14192;DHT22;7177;48.572;7.838;2022-09-02T04:09:04;13.80;99.90
14192;DHT22;7177;48.572;7.838;2022-09-02T04:11:30;13.90;99.90
14192;DHT22;7177;48.572;7.838;2022-09-02T04:13:56;13.90;99.90
14192;DHT22;7177;48.572;7.838;2022-09-02T04:16:24;14.00;99.90
14192;DHT22;7177;48.572;7.838;2022-09-02T04:18:57;14.40;99.90
14192;DHT22;7177;48.572;7.838;2022-09-02T04:21:24;14.80;99.90
14192;DHT22;7177;48.572;7.838;2022-09-02T04:23:50;15.10;99.90
14192;DHT22;7177;48.572;7.838;2022-09-02T04:26:17;15.30;99.90
14192;DHT22;7177;48.572;7.838;2022-09-02T04:28:43;16.10;99.90
14192;DHT22;7177;48.572;7.838;2022-09-02T04:31:11;15.60;99.90
14192;DHT22;7177;48.572;7.838;2022-09-02T04:33:37;15.70;99.90
14192;DHT22;7177;48.572;7.838;2022-09-02T04:36:08;15.60;99.90
14192;DHT22;7177;48.572;7.838;2022-09-02T04:38:34;15.30;99.90
14192;DHT22;7177;48.572;7.838;2022-09-02T04:41:15;15.20;99.90
14192;DHT22;7177;48.572;7.838;2022-09-02T04:43:41;15.00;99.90
14192;DHT22;7177;48.572;7.838;2022-09-02T04:46:09;14.80;99.90
14192;DHT22;7177;48.572;7.838;2022-09-02T04:48:35;14.60;99.90
14192;DHT22;7177;48.572;7.838;2022-09-02T04:51:21;14.50;99.90
14192;DHT22;7177;48.572;7.838;2022-09-02T04:53:48;14.50;99.90
14192;DHT22;7177;48.572;7.838;2022-09-02T04:56:18;14.50;99.90
14192;DHT22;7177;48.572;7.838;2022-09-02T04:58:44;14.40;99.90
14192;DHT22;7177;48.572;7.838;2022-09-02T05:01:21;14.30;99.90
14192;DHT22;7177;48.572;7.838;2022-09-02T05:03:48;14.20;99.90
14192;DHT22;7177;48.572;7.838;2022-09-02T05:06:17;14.00;99.90
14192;DHT22;7177;48.572;7.838;2022-09-02T05:08:43;13.70;99.90
14192;DHT22;7177;48.572;7.838;2022-09-02T05:11:13;13.60;99.90
14192;DHT22;7177;48.572;7.838;2022-09-02T05:13:41;13.50;99.90
14192;DHT22;7177;48.572;7.838;2022-09-02T05:16:07;13.60;99.90
14192;DHT22;7177;48.572;7.838;2022-09-02T05:18:32;13.70;99.90
14192;DHT22;7177;48.572;7.838;2022-09-02T05:20:58;13.70;99.90
14192;DHT22;7177;48.572;7.838;2022-09-02T05:23:23;13.80;99.90
14192;DHT22;7177;48.572;7.838;2022-09-02T05:25:49;13.90;99.90
14192;DHT22;7177;48.572;7.838;2022-09-02T05:28:15;14.00;99.90
14192;DHT22;7177;48.572;7.838;2022-09-02T05:30:41;14.10;99.90
14192;DHT22;7177;48.572;7.838;2022-09-02T05:33:08;14.20;99.90
14192;DHT22;7177;48.572;7.838;2022-09-02T05:35:40;14.30;99.90
14192;DHT22;7177;48.572;7.838;2022-09-02T05:38:06;14.40;99.90
14192;DHT22;7177;48.572;7.838;2022-09-02T05:40:33;14.50;99.90
14192;DHT22;7177;48.572;7.838;2022-09-02T05:43:00;14.60;99.90
14192;DHT22;7177;48.572;7.838;2022-09-02T05:45:25;14.80;99.90
14192;DHT22;7177;48.572;7.838;2022-09-02T05:47:51;15.30;99.90
14192;DHT22;7177;48.572;7.838;2022-09-02T05:50:16;15.40;99.90
14192;DHT22;7177;48.572;7.838;2022-09-02T05:52:43;15.70;99.90
14192;DHT22;7177;48.572;7.838;2022-09-02T05:55:09;15.80;99.90
14192;DHT22;7177;48.572;7.838;2022-09-02T05:57:35;15.80;99.90
14192;DHT22;7177;48.572;7.838;2022-09-02T06:00:02;15.90;99.90
14192;DHT22;7177;48.572;7.838;2022-09-02T06:02:28;15.80;99.90
14192;DHT22;7177;48.572;7.838;2022-09-02T06:04:53;15.90;99.90
14192;DHT22;7177;48.572;7.838;2022-09-02T06:07:23;16.00;99.90
14192;DHT22;7177;48.572;7.838;2022-09-02T06:09:50;16.20;99.90
14192;DHT22;7177;48.572;7.838;2022-09-02T06:12:16;16.60;99.90
14192;DHT22;7177;48.572;7.838;2022-09-02T06:14:45;17.10;99.90
14192;DHT22;7177;48.572;7.838;2022-09-02T06:17:12;17.60;99.90
14192;DHT22;7177;48.572;7.838;2022-09-02T06:19:38;17.80;99.90
14192;DHT22;7177;48.572;7.838;2022-09-02T06:22:04;18.20;99.90
14192;DHT22;7177;48.572;7.838;2022-09-02T06:24:30;18.40;99.90
14192;DHT22;7177;48.572;7.838;2022-09-02T06:26:56;18.60;99.90
14192;DHT22;7177;48.572;7.838;2022-09-02T06:29:23;18.80;99.90
14192;DHT22;7177;48.572;7.838;2022-09-02T06:31:49;19.00;99.90
14192;DHT22;7177;48.572;7.838;2022-09-02T06:34:17;19.10;99.90
14192;DHT22;7177;48.572;7.838;2022-09-02T06:36:45;19.20;99.90
14192;DHT22;7177;48.572;7.838;2022-09-02T06:39:14;19.40;99.90
14192;DHT22;7177;48.572;7.838;2022-09-02T06:41:42;19.60;99.90
14192;DHT22;7177;48.572;7.838;2022-09-02T06:44:09;19.80;99.90
14192;DHT22;7177;48.572;7.838;2022-09-02T06:46:37;20.00;99.90
14192;DHT22;7177;48.572;7.838;2022-09-02T06:49:05;20.10;99.90
14192;DHT22;7177;48.572;7.838;2022-09-02T06:51:40;20.30;99.90
14192;DHT22;7177;48.572;7.838;2022-09-02T06:54:09;20.50;99.90
14192;DHT22;7177;48.572;7.838;2022-09-02T06:56:35;20.60;99.90
14192;DHT22;7177;48.572;7.838;2022-09-02T06:59:02;20.90;99.90
14192;DHT22;7177;48.572;7.838;2022-09-02T07:01:30;20.90;99.90
14192;DHT22;7177;48.572;7.838;2022-09-02T07:03:57;20.90;99.90
14192;DHT22;7177;48.572;7.838;2022-09-02T07:06:46;21.00;99.90
14192;DHT22;7177;48.572;7.838;2022-09-02T07:09:15;21.00;99.90
14192;DHT22;7177;48.572;7.838;2022-09-02T07:11:42;21.00;99.90
14192;DHT22;7177;48.572;7.838;2022-09-02T07:14:13;21.00;99.90
14192;DHT22;7177;48.572;7.838;2022-09-02T07:16:43;21.20;99.90
14192;DHT22;7177;48.572;7.838;2022-09-02T07:19:10;21.40;99.90
14192;DHT22;7177;48.572;7.838;2022-09-02T07:21:35;21.60;99.90
14192;DHT22;7177;48.572;7.838;2022-09-02T07:24:01;21.80;99.90
14192;DHT22;7177;48.572;7.838;2022-09-02T07:26:27;21.80;99.90
14192;DHT22;7177;48.572;7.838;2022-09-02T07:28:54;22.00;99.90
14192;DHT22;7177;48.572;7.838;2022-09-02T07:31:20;22.20;99.90
14192;DHT22;7177;48.572;7.838;2022-09-02T07:33:47;22.30;99.90
14192;DHT22;7177;48.572;7.838;2022-09-02T07:36:13;22.50;99.90
14192;DHT22;7177;48.572;7.838;2022-09-02T07:38:40;22.60;99.90
14192;DHT22;7177;48.572;7.838;2022-09-02T07:41:07;22.90;99.90
14192;DHT22;7177;48.572;7.838;2022-09-02T07:43:34;23.00;99.90
14192;DHT22;7177;48.572;7.838;2022-09-02T07:46:00;23.20;99.90
14192;DHT22;7177;48.572;7.838;2022-09-02T07:48:27;23.40;99.90
14192;DHT22;7177;48.572;7.838;2022-09-02T07:50:53;23.80;99.90
14192;DHT22;7177;48.572;7.838;2022-09-02T07:53:19;23.80;99.90
14192;DHT22;7177;48.572;7.838;2022-09-02T07:55:45;24.00;99.90
14192;DHT22;7177;48.572;7.838;2022-09-02T07:58:13;24.00;99.90
14192;DHT22;7177;48.572;7.838;2022-09-02T08:00:40;23.90;99.90
14192;DHT22;7177;48.572;7.838;2022-09-02T08:03:08;24.00;99.90
14192;DHT22;7177;48.572;7.838;2022-09-02T08:05:34;24.20;99.90
14192;DHT22;7177;48.572;7.838;2022-09-02T08:08:00;24.30;99.90
14192;DHT22;7177;48.572;7.838;2022-09-02T08:10:27;24.50;99.90
14192;DHT22;7177;48.572;7.838;2022-09-02T08:12:55;25.00;99.90
14192;DHT22;7177;48.572;7.838;2022-09-02T08:15:23;25.30;99.90
14192;DHT22;7177;48.572;7.838;2022-09-02T08:17:49;25.40;99.90
14192;DHT22;7177;48.572;7.838;2022-09-02T08:20:15;25.50;99.90
14192;DHT22;7177;48.572;7.838;2022-09-02T08:22:42;25.90;99.90
14192;DHT22;7177;48.572;7.838;2022-09-02T08:25:09;26.10;99.90
14192;DHT22;7177;48.572;7.838;2022-09-02T08:27:35;26.40;99.90
14192;DHT22;7177;48.572;7.838;2022-09-02T08:30:02;26.70;99.90
14192;DHT22;7177;48.572;7.838;2022-09-02T08:32:28;26.80;99.90
14192;DHT22;7177;48.572;7.838;2022-09-02T08:34:55;26.90;99.30
14192;DHT22;7177;48.572;7.838;2022-09-02T08:37:20;26.60;99.90
14192;DHT22;7177;48.572;7.838;2022-09-02T08:39:47;26.70;99.90
14192;DHT22;7177;48.572;7.838;2022-09-02T08:42:28;27.10;98.70
14192;DHT22;7177;48.572;7.838;2022-09-02T08:44:59;27.50;98.50
14192;DHT22;7177;48.572;7.838;2022-09-02T08:47:30;27.80;96.10
14192;DHT22;7177;48.572;7.838;2022-09-02T08:50:04;28.10;94.10
14192;DHT22;7177;48.572;7.838;2022-09-02T08:52:55;28.30;94.20
14192;DHT22;7177;48.572;7.838;2022-09-02T08:55:34;28.20;94.60
14192;DHT22;7177;48.572;7.838;2022-09-02T08:58:00;28.50;92.40
14192;DHT22;7177;48.572;7.838;2022-09-02T09:00:29;28.80;91.30
14192;DHT22;7177;48.572;7.838;2022-09-02T09:05:46;29.30;83.00
14192;DHT22;7177;48.572;7.838;2022-09-02T09:08:30;29.30;84.60
14192;DHT22;7177;48.572;7.838;2022-09-02T09:11:06;29.20;80.90
14192;DHT22;7177;48.572;7.838;2022-09-02T09:16:46;29.30;81.60
14192;DHT22;7177;48.572;7.838;2022-09-02T09:19:14;29.50;81.00
14192;DHT22;7177;48.572;7.838;2022-09-02T09:21:41;29.60;82.70
14192;DHT22;7177;48.572;7.838;2022-09-02T09:24:27;29.30;82.70
14192;DHT22;7177;48.572;7.838;2022-09-02T09:26:54;29.10;82.50
14192;DHT22;7177;48.572;7.838;2022-09-02T09:29:20;29.40;81.60
14192;DHT22;7177;48.572;7.838;2022-09-02T09:31:53;29.70;80.00
14192;DHT22;7177;48.572;7.838;2022-09-02T09:34:20;29.80;78.00
14192;DHT22;7177;48.572;7.838;2022-09-02T09:36:51;29.90;79.10
14192;DHT22;7177;48.572;7.838;2022-09-02T09:39:31;29.90;75.90
14192;DHT22;7177;48.572;7.838;2022-09-02T09:42:02;30.00;74.30
14192;DHT22;7177;48.572;7.838;2022-09-02T09:44:47;30.20;75.20
14192;DHT22;7177;48.572;7.838;2022-09-02T09:47:22;30.40;72.20
14192;DHT22;7177;48.572;7.838;2022-09-02T09:49:51;30.50;70.00
14192;DHT22;7177;48.572;7.838;2022-09-02T09:52:22;30.10;70.30
14192;DHT22;7177;48.572;7.838;2022-09-02T09:55:06;30.30;74.10
14192;DHT22;7177;48.572;7.838;2022-09-02T09:57:32;30.60;69.90
14192;DHT22;7177;48.572;7.838;2022-09-02T09:59:58;30.60;70.30
14192;DHT22;7177;48.572;7.838;2022-09-02T10:02:26;30.60;70.90
14192;DHT22;7177;48.572;7.838;2022-09-02T10:04:54;31.00;69.40
14192;DHT22;7177;48.572;7.838;2022-09-02T10:07:40;30.90;69.70
14192;DHT22;7177;48.572;7.838;2022-09-02T10:10:15;31.00;70.60
14192;DHT22;7177;48.572;7.838;2022-09-02T10:12:41;31.20;66.60
14192;DHT22;7177;48.572;7.838;2022-09-02T10:15:08;31.70;63.60
14192;DHT22;7177;48.572;7.838;2022-09-02T10:29:08;31.70;64.40
14192;DHT22;7177;48.572;7.838;2022-09-02T10:37:18;32.70;60.50
14192;DHT22;7177;48.572;7.838;2022-09-02T10:42:44;33.50;59.20
14192;DHT22;7177;48.572;7.838;2022-09-02T10:56:25;33.60;54.00
14192;DHT22;7177;48.572;7.838;2022-09-02T10:59:02;33.70;54.90
14192;DHT22;7177;48.572;7.838;2022-09-02T11:01:38;33.50;56.30
14192;DHT22;7177;48.572;7.838;2022-09-02T11:04:45;33.70;53.70
14192;DHT22;7177;48.572;7.838;2022-09-02T11:07:16;33.90;52.30
14192;DHT22;7177;48.572;7.838;2022-09-02T11:09:58;34.30;53.30
14192;DHT22;7177;48.572;7.838;2022-09-02T11:12:38;34.40;52.60
14192;DHT22;7177;48.572;7.838;2022-09-02T11:17:59;34.50;50.30
14192;DHT22;7177;48.572;7.838;2022-09-02T11:23:29;34.80;48.50
14192;DHT22;7177;48.572;7.838;2022-09-02T11:26:23;35.10;49.80
14192;DHT22;7177;48.572;7.838;2022-09-02T11:31:21;35.20;47.60
14192;DHT22;7177;48.572;7.838;2022-09-02T11:33:56;35.00;48.20
14192;DHT22;7177;48.572;7.838;2022-09-02T11:36:24;35.00;49.30
14192;DHT22;7177;48.572;7.838;2022-09-02T11:38:56;35.20;49.40
14192;DHT22;7177;48.572;7.838;2022-09-02T11:55:24;35.30;46.30
14192;DHT22;7177;48.572;7.838;2022-09-02T11:57:53;34.60;46.90
14192;DHT22;7177;48.572;7.838;2022-09-02T12:00:33;34.60;47.10
14192;DHT22;7177;48.572;7.838;2022-09-02T12:08:03;35.60;45.20
14192;DHT22;7177;48.572;7.838;2022-09-02T12:18:38;34.60;45.00
14192;DHT22;7177;48.572;7.838;2022-09-02T12:21:12;34.80;45.80
14192;DHT22;7177;48.572;7.838;2022-09-02T12:26:15;34.50;44.00
14192;DHT22;7177;48.572;7.838;2022-09-02T12:28:45;34.70;44.10
14192;DHT22;7177;48.572;7.838;2022-09-02T12:33:55;34.10;45.20
14192;DHT22;7177;48.572;7.838;2022-09-02T12:45:05;35.50;44.30
14192;DHT22;7177;48.572;7.838;2022-09-02T12:53:09;35.60;44.70
14192;DHT22;7177;48.572;7.838;2022-09-02T12:55:37;35.90;43.40
14192;DHT22;7177;48.572;7.838;2022-09-02T12:58:08;35.80;42.00
14192;DHT22;7177;48.572;7.838;2022-09-02T13:06:40;35.40;43.40
14192;DHT22;7177;48.572;7.838;2022-09-02T13:09:30;34.90;43.10
14192;DHT22;7177;48.572;7.838;2022-09-02T13:12:35;34.60;43.40
14192;DHT22;7177;48.572;7.838;2022-09-02T13:32:12;35.90;42.70
14192;DHT22;7177;48.572;7.838;2022-09-02T13:34:41;35.10;43.10
14192;DHT22;7177;48.572;7.838;2022-09-02T13:37:38;34.60;43.90
14192;DHT22;7177;48.572;7.838;2022-09-02T13:40:20;34.20;43.00
14192;DHT22;7177;48.572;7.838;2022-09-02T13:42:54;33.90;45.00
14192;DHT22;7177;48.572;7.838;2022-09-02T13:45:22;34.00;46.40
14192;DHT22;7177;48.572;7.838;2022-09-02T13:47:53;34.30;45.70
14192;DHT22;7177;48.572;7.838;2022-09-02T13:50:22;34.70;45.60
14192;DHT22;7177;48.572;7.838;2022-09-02T13:52:52;35.00;45.30
14192;DHT22;7177;48.572;7.838;2022-09-02T13:55:19;35.10;43.00
14192;DHT22;7177;48.572;7.838;2022-09-02T13:57:54;35.10;44.90
14192;DHT22;7177;48.572;7.838;2022-09-02T14:00:36;35.10;43.70
14192;DHT22;7177;48.572;7.838;2022-09-02T14:05:35;35.20;45.00
14192;DHT22;7177;48.572;7.838;2022-09-02T14:08:04;35.30;43.50
14192;DHT22;7177;48.572;7.838;2022-09-02T14:10:31;35.70;42.90
14192;DHT22;7177;48.572;7.838;2022-09-02T14:13:01;35.60;45.30
14192;DHT22;7177;48.572;7.838;2022-09-02T14:15:30;35.60;44.30
14192;DHT22;7177;48.572;7.838;2022-09-02T14:18:16;35.60;44.30
14192;DHT22;7177;48.572;7.838;2022-09-02T14:21:16;35.10;44.40
14192;DHT22;7177;48.572;7.838;2022-09-02T14:23:49;34.40;45.00
14192;DHT22;7177;48.572;7.838;2022-09-02T14:26:34;34.40;44.30
14192;DHT22;7177;48.572;7.838;2022-09-02T14:29:02;34.50;45.00
14192;DHT22;7177;48.572;7.838;2022-09-02T14:31:29;34.70;45.90
14192;DHT22;7177;48.572;7.838;2022-09-02T14:33:59;34.90;44.90
14192;DHT22;7177;48.572;7.838;2022-09-02T14:36:36;34.80;43.60
14192;DHT22;7177;48.572;7.838;2022-09-02T14:39:16;34.30;43.30
14192;DHT22;7177;48.572;7.838;2022-09-02T14:41:50;33.80;45.00
14192;DHT22;7177;48.572;7.838;2022-09-02T14:44:30;33.50;45.50
14192;DHT22;7177;48.572;7.838;2022-09-02T14:47:03;33.20;47.50
14192;DHT22;7177;48.572;7.838;2022-09-02T14:49:45;33.00;47.10
14192;DHT22;7177;48.572;7.838;2022-09-02T14:52:22;32.80;46.80
14192;DHT22;7177;48.572;7.838;2022-09-02T14:54:50;32.80;47.80
14192;DHT22;7177;48.572;7.838;2022-09-02T14:57:33;32.50;48.00
14192;DHT22;7177;48.572;7.838;2022-09-02T15:00:10;32.20;48.40
14192;DHT22;7177;48.572;7.838;2022-09-02T15:02:40;31.80;48.90
14192;DHT22;7177;48.572;7.838;2022-09-02T15:05:08;31.80;49.60
14192;DHT22;7177;48.572;7.838;2022-09-02T15:07:35;31.70;49.80
14192;DHT22;7177;48.572;7.838;2022-09-02T15:10:01;31.50;50.20
14192;DHT22;7177;48.572;7.838;2022-09-02T15:12:29;31.40;50.40
14192;DHT22;7177;48.572;7.838;2022-09-02T15:14:55;31.30;50.00
14192;DHT22;7177;48.572;7.838;2022-09-02T15:17:21;31.10;51.90
14192;DHT22;7177;48.572;7.838;2022-09-02T15:19:48;30.80;50.80
14192;DHT22;7177;48.572;7.838;2022-09-02T15:22:14;30.50;51.80
14192;DHT22;7177;48.572;7.838;2022-09-02T15:24:40;30.00;52.30
14192;DHT22;7177;48.572;7.838;2022-09-02T15:27:08;29.90;52.00
14192;DHT22;7177;48.572;7.838;2022-09-02T15:29:34;29.80;54.00
14192;DHT22;7177;48.572;7.838;2022-09-02T15:31:59;29.60;53.30
14192;DHT22;7177;48.572;7.838;2022-09-02T15:34:25;29.60;53.80
14192;DHT22;7177;48.572;7.838;2022-09-02T15:36:50;29.60;53.90
14192;DHT22;7177;48.572;7.838;2022-09-02T15:39:16;29.70;54.70
14192;DHT22;7177;48.572;7.838;2022-09-02T15:41:44;30.00;53.50
14192;DHT22;7177;48.572;7.838;2022-09-02T15:44:10;30.40;53.60
14192;DHT22;7177;48.572;7.838;2022-09-02T15:46:36;30.60;53.00
14192;DHT22;7177;48.572;7.838;2022-09-02T15:49:10;30.80;53.20
14192;DHT22;7177;48.572;7.838;2022-09-02T15:51:38;31.00;53.00
14192;DHT22;7177;48.572;7.838;2022-09-02T15:54:07;31.10;53.20
14192;DHT22;7177;48.572;7.838;2022-09-02T15:56:34;31.20;51.70
14192;DHT22;7177;48.572;7.838;2022-09-02T15:59:05;31.30;52.50
14192;DHT22;7177;48.572;7.838;2022-09-02T16:01:36;31.40;51.50
14192;DHT22;7177;48.572;7.838;2022-09-02T16:04:06;31.40;51.30
14192;DHT22;7177;48.572;7.838;2022-09-02T16:06:33;31.30;51.40
14192;DHT22;7177;48.572;7.838;2022-09-02T16:09:01;31.00;51.20
14192;DHT22;7177;48.572;7.838;2022-09-02T16:11:27;30.20;52.40
14192;DHT22;7177;48.572;7.838;2022-09-02T16:13:52;29.80;52.10
14192;DHT22;7177;48.572;7.838;2022-09-02T16:16:18;29.50;53.20
14192;DHT22;7177;48.572;7.838;2022-09-02T16:18:49;29.20;53.70
14192;DHT22;7177;48.572;7.838;2022-09-02T16:21:16;28.90;54.40
14192;DHT22;7177;48.572;7.838;2022-09-02T16:23:42;28.70;54.20
14192;DHT22;7177;48.572;7.838;2022-09-02T16:26:29;28.60;55.00
14192;DHT22;7177;48.572;7.838;2022-09-02T16:28:58;28.60;55.70
14192;DHT22;7177;48.572;7.838;2022-09-02T16:31:25;28.50;55.90
14192;DHT22;7177;48.572;7.838;2022-09-02T16:33:53;28.30;56.20
14192;DHT22;7177;48.572;7.838;2022-09-02T16:36:20;28.30;56.60
14192;DHT22;7177;48.572;7.838;2022-09-02T16:38:45;28.30;57.60
14192;DHT22;7177;48.572;7.838;2022-09-02T16:41:26;28.20;58.60
14192;DHT22;7177;48.572;7.838;2022-09-02T16:43:56;28.10;58.70
14192;DHT22;7177;48.572;7.838;2022-09-02T16:46:23;28.00;59.50
14192;DHT22;7177;48.572;7.838;2022-09-02T16:48:49;28.00;60.00
14192;DHT22;7177;48.572;7.838;2022-09-02T16:51:15;27.90;61.30
14192;DHT22;7177;48.572;7.838;2022-09-02T16:53:41;27.80;61.70
14192;DHT22;7177;48.572;7.838;2022-09-02T16:56:11;27.70;60.90
14192;DHT22;7177;48.572;7.838;2022-09-02T16:58:36;27.60;61.30
14192;DHT22;7177;48.572;7.838;2022-09-02T17:01:06;27.50;62.00
14192;DHT22;7177;48.572;7.838;2022-09-02T17:03:32;27.40;62.30
14192;DHT22;7177;48.572;7.838;2022-09-02T17:05:58;27.30;62.80
14192;DHT22;7177;48.572;7.838;2022-09-02T17:08:24;27.20;63.50
14192;DHT22;7177;48.572;7.838;2022-09-02T17:10:49;27.10;65.00
14192;DHT22;7177;48.572;7.838;2022-09-02T17:13:15;27.10;64.10
14192;DHT22;7177;48.572;7.838;2022-09-02T17:15:40;27.10;64.70
14192;DHT22;7177;48.572;7.838;2022-09-02T17:18:06;27.10;65.20
14192;DHT22;7177;48.572;7.838;2022-09-02T17:20:31;27.10;65.60
14192;DHT22;7177;48.572;7.838;2022-09-02T17:22:57;27.00;65.30
14192;DHT22;7177;48.572;7.838;2022-09-02T17:25:22;27.00;66.50
14192;DHT22;7177;48.572;7.838;2022-09-02T17:27:48;26.90;66.70
14192;DHT22;7177;48.572;7.838;2022-09-02T17:30:14;26.90;67.70
14192;DHT22;7177;48.572;7.838;2022-09-02T17:32:40;26.50;69.80
14192;DHT22;7177;48.572;7.838;2022-09-02T17:35:10;26.40;69.10
14192;DHT22;7177;48.572;7.838;2022-09-02T17:37:36;26.20;71.90
14192;DHT22;7177;48.572;7.838;2022-09-02T17:40:06;26.10;71.60
14192;DHT22;7177;48.572;7.838;2022-09-02T17:42:32;26.10;71.50
14192;DHT22;7177;48.572;7.838;2022-09-02T17:44:58;26.00;73.70
14192;DHT22;7177;48.572;7.838;2022-09-02T17:47:24;25.90;72.50
14192;DHT22;7177;48.572;7.838;2022-09-02T17:49:50;25.60;72.80
14192;DHT22;7177;48.572;7.838;2022-09-02T17:52:21;25.40;73.70
14192;DHT22;7177;48.572;7.838;2022-09-02T17:54:51;25.00;75.60